createdAt,value
2022-11-30T00:00:18.459Z,1.5
2022-11-30T00:01:18.467Z,1.72
2022-11-30T00:02:18.551Z,1.72
2022-11-30T00:03:18.570Z,1.61
2022-11-30T00:04:18.462Z,1.67
2022-11-30T00:05:18.499Z,1.72
2022-11-30T00:06:18.473Z,1.67
2022-11-30T00:07:18.480Z,1.67
2022-11-30T00:08:18.473Z,1.67
2022-11-30T00:09:18.521Z,1.56
2022-11-30T00:10:18.459Z,1.83
2022-11-30T00:11:18.482Z,1.5
2022-11-30T00:12:18.459Z,1.67
2022-11-30T00:13:18.447Z,2
2022-11-30T00:14:18.482Z,1.72
2022-11-30T00:15:18.481Z,1.72
2022-11-30T00:16:18.510Z,1.72
2022-11-30T00:17:18.459Z,1.83
2022-11-30T00:18:18.472Z,1.67
2022-11-30T00:19:18.482Z,2.06
2022-11-30T00:20:18.476Z,1.72
2022-11-30T00:21:18.495Z,1.89
2022-11-30T00:22:18.470Z,1.83
2022-11-30T00:23:18.473Z,1.89
2022-11-30T00:24:18.497Z,1.67
2022-11-30T00:25:18.482Z,1.83
2022-11-30T00:26:18.479Z,1.83
2022-11-30T00:27:18.482Z,1.67
2022-11-30T00:28:18.485Z,1.83
2022-11-30T00:29:18.475Z,1.83
2022-11-30T00:30:18.472Z,1.61
2022-11-30T00:31:18.609Z,1.72
2022-11-30T00:32:18.487Z,1.89
2022-11-30T00:33:18.466Z,1.72
2022-11-30T00:34:18.475Z,1.67
2022-11-30T00:35:18.459Z,1.67
2022-11-30T00:36:18.463Z,1.83
2022-11-30T00:37:18.486Z,2
2022-11-30T00:38:18.456Z,1.83
2022-11-30T00:39:18.462Z,1.56
2022-11-30T00:40:18.454Z,1.67
2022-11-30T00:41:18.472Z,2.06
2022-11-30T00:42:18.465Z,1.61
2022-11-30T00:43:18.485Z,1.67
2022-11-30T00:44:18.480Z,1.72
2022-11-30T00:45:18.480Z,1.61
2022-11-30T00:46:18.526Z,1.72
2022-11-30T00:47:18.491Z,1.83
2022-11-30T00:48:18.523Z,1.67
2022-11-30T00:49:18.478Z,1.67
2022-11-30T00:50:18.499Z,1.83
2022-11-30T00:51:18.549Z,1.83
2022-11-30T00:52:18.489Z,1.78
2022-11-30T00:53:18.504Z,1.61
2022-11-30T00:54:18.501Z,1.83
2022-11-30T00:55:18.489Z,1.89
2022-11-30T00:56:18.488Z,1.72
2022-11-30T00:57:18.502Z,2
2022-11-30T00:58:18.491Z,1.78
2022-11-30T00:59:18.491Z,1.83
2022-11-30T01:00:18.492Z,1.78
2022-11-30T01:01:18.532Z,1.83
2022-11-30T01:02:18.586Z,1.83
2022-11-30T01:03:18.506Z,1.56
2022-11-30T01:04:18.500Z,1.83
2022-11-30T01:05:18.498Z,1.72
2022-11-30T01:06:18.503Z,1.61
2022-11-30T01:07:18.560Z,1.72
2022-11-30T01:08:18.499Z,1.61
2022-11-30T01:09:18.539Z,1.83
2022-11-30T01:10:18.502Z,1.83
2022-11-30T01:11:18.510Z,2
2022-11-30T01:12:18.507Z,1.56
2022-11-30T01:13:18.506Z,1.72
2022-11-30T01:14:18.539Z,1.44
2022-11-30T01:15:18.514Z,1.72
2022-11-30T01:16:18.632Z,1.72
2022-11-30T01:17:18.509Z,1.56
2022-11-30T01:18:18.517Z,1.5
2022-11-30T01:19:18.513Z,1.72
2022-11-30T01:20:18.524Z,1.56
2022-11-30T01:21:18.520Z,1.72
2022-11-30T01:22:18.527Z,1.72
2022-11-30T01:23:18.515Z,1.83
2022-11-30T01:24:18.530Z,1.83
2022-11-30T01:25:18.555Z,1.28
2022-11-30T01:26:18.528Z,1.56
2022-11-30T01:27:18.523Z,1.5
2022-11-30T01:28:18.531Z,1.56
2022-11-30T01:29:18.524Z,1.72
2022-11-30T01:30:18.529Z,1.28
2022-11-30T01:31:18.575Z,1.28
2022-11-30T01:32:18.540Z,1.28
2022-11-30T01:33:18.629Z,1.56
2022-11-30T01:34:18.540Z,1.56
2022-11-30T01:35:18.539Z,1.56
2022-11-30T01:36:18.543Z,1.56
2022-11-30T01:37:18.540Z,1.56
2022-11-30T01:38:18.550Z,1.72
2022-11-30T01:39:18.541Z,1.28
2022-11-30T01:40:18.557Z,1.72
2022-11-30T01:41:18.578Z,1.56
2022-11-30T01:42:18.545Z,1.72
2022-11-30T01:43:18.551Z,1.56
2022-11-30T01:44:20.196Z,1.56
2022-11-30T01:45:18.544Z,1.28
2022-11-30T01:46:18.611Z,1.56
2022-11-30T01:47:18.561Z,1.56
2022-11-30T01:48:18.545Z,1.72
2022-11-30T01:49:18.558Z,1.72
2022-11-30T01:50:18.557Z,1.28
2022-11-30T01:51:18.556Z,1.56
2022-11-30T01:52:18.559Z,1.5
2022-11-30T01:53:18.565Z,1.56
2022-11-30T01:54:18.558Z,1.56
2022-11-30T01:55:18.553Z,1.56
2022-11-30T01:56:18.559Z,1.44
2022-11-30T01:57:18.593Z,1.5
2022-11-30T01:58:18.567Z,1.56
2022-11-30T01:59:18.571Z,1.5
2022-11-30T02:00:18.569Z,1.56
2022-11-30T02:01:18.608Z,1.56
2022-11-30T02:02:18.608Z,1.5
2022-11-30T02:03:18.577Z,1.5
2022-11-30T02:04:18.570Z,1.56
2022-11-30T02:05:18.575Z,1.56
2022-11-30T02:06:18.574Z,1.5
2022-11-30T02:07:18.676Z,1.56
2022-11-30T02:08:18.675Z,1.22
2022-11-30T02:09:18.582Z,1.44
2022-11-30T02:10:18.576Z,1.56
2022-11-30T02:11:18.575Z,1.56
2022-11-30T02:12:18.583Z,1.56
2022-11-30T02:13:18.602Z,1.11
2022-11-30T02:14:18.585Z,1.28
2022-11-30T02:15:18.588Z,1.44
2022-11-30T02:16:18.585Z,1.56
2022-11-30T02:17:18.589Z,1.44
2022-11-30T02:18:18.598Z,1.56
2022-11-30T02:19:18.590Z,1.56
2022-11-30T02:20:18.587Z,1.28
2022-11-30T02:21:18.605Z,1.11
2022-11-30T02:22:18.651Z,1.22
2022-11-30T02:23:18.605Z,1.56
2022-11-30T02:24:18.625Z,1.5
2022-11-30T02:25:18.599Z,1.28
2022-11-30T02:26:18.600Z,1.28
2022-11-30T02:27:18.683Z,1.06
2022-11-30T02:28:18.601Z,1.11
2022-11-30T02:29:18.640Z,1.5
2022-11-30T02:30:18.608Z,1.56
2022-11-30T02:31:18.632Z,1.44
2022-11-30T02:32:18.639Z,1.28
2022-11-30T02:33:18.605Z,1.56
2022-11-30T02:34:18.604Z,1.44
2022-11-30T02:35:18.611Z,1.33
2022-11-30T02:36:18.605Z,1.44
2022-11-30T02:37:18.600Z,1.11
2022-11-30T02:38:18.617Z,1.28
2022-11-30T02:39:18.606Z,0.72
2022-11-30T02:40:18.609Z,1.11
2022-11-30T02:41:18.609Z,1.56
2022-11-30T02:42:18.672Z,1
2022-11-30T02:43:18.607Z,1.28
2022-11-30T02:44:18.611Z,1.11
2022-11-30T02:45:18.631Z,1.06
2022-11-30T02:46:18.625Z,0.83
2022-11-30T02:47:18.610Z,0.94
2022-11-30T02:48:18.613Z,0.89
2022-11-30T02:49:18.611Z,1.11
2022-11-30T02:50:18.611Z,1.11
2022-11-30T02:51:18.616Z,1.28
2022-11-30T02:52:18.622Z,1
2022-11-30T02:53:18.626Z,1.33
2022-11-30T02:54:18.629Z,0.89
2022-11-30T02:55:18.622Z,1.22
2022-11-30T02:56:18.624Z,0.94
2022-11-30T02:57:18.623Z,1.06
2022-11-30T02:58:18.632Z,0.94
2022-11-30T02:59:18.625Z,1.06
2022-11-30T03:00:18.629Z,0.83
2022-11-30T03:01:18.703Z,1.11
2022-11-30T03:02:18.688Z,1.22
2022-11-30T03:03:18.638Z,1.11
2022-11-30T03:04:18.632Z,1.17
2022-11-30T03:05:18.636Z,1.11
2022-11-30T03:06:18.637Z,1.17
2022-11-30T03:07:18.692Z,1.06
2022-11-30T03:08:18.641Z,0.94
2022-11-30T03:09:18.645Z,0.89
2022-11-30T03:10:18.641Z,0.89
2022-11-30T03:11:18.653Z,0.89
2022-11-30T03:12:18.646Z,1.28
2022-11-30T03:13:18.639Z,1.06
2022-11-30T03:14:18.649Z,1.06
2022-11-30T03:15:18.652Z,0.72
2022-11-30T03:16:18.678Z,1.06
2022-11-30T03:17:18.669Z,0.61
2022-11-30T03:18:18.647Z,0.89
2022-11-30T03:19:18.652Z,0.94
2022-11-30T03:20:18.657Z,1.06
2022-11-30T03:21:18.661Z,1.06
2022-11-30T03:22:18.651Z,0.67
2022-11-30T03:23:18.660Z,1.17
2022-11-30T03:24:18.653Z,0.89
2022-11-30T03:25:18.660Z,0.89
2022-11-30T03:26:18.655Z,1.11
2022-11-30T03:27:18.664Z,1.11
2022-11-30T03:28:18.658Z,1.06
2022-11-30T03:29:18.665Z,0.89
2022-11-30T03:30:18.679Z,1.11
2022-11-30T03:31:18.681Z,1.17
2022-11-30T03:32:18.666Z,1.06
2022-11-30T03:33:18.697Z,1.06
2022-11-30T03:34:18.674Z,1.06
2022-11-30T03:35:18.670Z,1.17
2022-11-30T03:36:18.662Z,1.17
2022-11-30T03:37:18.669Z,0.72
2022-11-30T03:38:18.784Z,1.28
2022-11-30T03:39:18.675Z,1.17
2022-11-30T03:40:18.680Z,1.17
2022-11-30T03:41:18.677Z,0.89
2022-11-30T03:42:18.675Z,1.06
2022-11-30T03:43:18.674Z,0.89
2022-11-30T03:44:18.686Z,0.89
2022-11-30T03:45:18.683Z,1.11
2022-11-30T03:46:18.768Z,0.89
2022-11-30T03:47:18.678Z,1.06
2022-11-30T03:48:18.678Z,0.89
2022-11-30T03:49:18.705Z,1.17
2022-11-30T03:50:18.700Z,1.06
2022-11-30T03:51:18.685Z,1.06
2022-11-30T03:52:18.690Z,1.28
2022-11-30T03:53:18.689Z,1.06
2022-11-30T03:54:18.744Z,0.89
2022-11-30T03:55:18.688Z,1.06
2022-11-30T03:56:18.696Z,0.72
2022-11-30T03:57:18.696Z,0.89
2022-11-30T03:58:18.695Z,1.11
2022-11-30T03:59:18.688Z,1.28
2022-11-30T04:00:18.696Z,0.61
2022-11-30T04:01:18.744Z,1.11
2022-11-30T04:02:18.698Z,0.72
2022-11-30T04:03:18.729Z,1.06
2022-11-30T04:04:18.699Z,0.56
2022-11-30T04:05:18.728Z,0.94
2022-11-30T04:06:18.698Z,0.89
2022-11-30T04:07:18.767Z,1.06
2022-11-30T04:08:18.706Z,0.89
2022-11-30T04:09:18.707Z,0.89
2022-11-30T04:10:18.713Z,0.83
2022-11-30T04:11:18.708Z,1.22
2022-11-30T04:12:18.712Z,1.06
2022-11-30T04:13:18.703Z,0.89
2022-11-30T04:14:18.720Z,0.89
2022-11-30T04:15:18.719Z,0.89
2022-11-30T04:16:18.757Z,0.89
2022-11-30T04:17:18.716Z,0.89
2022-11-30T04:18:18.715Z,0.89
2022-11-30T04:19:18.717Z,0.89
2022-11-30T04:20:18.719Z,1.17
2022-11-30T04:21:18.739Z,0.61
2022-11-30T04:22:18.714Z,0.89
2022-11-30T04:23:18.725Z,0.89
2022-11-30T04:24:18.719Z,0.89
2022-11-30T04:25:18.718Z,1.11
2022-11-30T04:26:18.720Z,0.94
2022-11-30T04:27:18.729Z,0.89
2022-11-30T04:28:18.725Z,1.06
2022-11-30T04:29:18.724Z,0.61
2022-11-30T04:30:18.735Z,1.06
2022-11-30T04:31:18.768Z,0.89
2022-11-30T04:32:18.729Z,0.94
2022-11-30T04:33:18.722Z,0.72
2022-11-30T04:34:18.733Z,0.72
2022-11-30T04:35:18.729Z,0.94
2022-11-30T04:36:18.727Z,0.89
2022-11-30T04:37:18.757Z,0.89
2022-11-30T04:38:18.735Z,1.06
2022-11-30T04:39:18.734Z,0.94
2022-11-30T04:40:18.741Z,0.72
2022-11-30T04:41:18.731Z,0.89
2022-11-30T04:42:18.736Z,0.89
2022-11-30T04:43:18.737Z,0.89
2022-11-30T04:44:18.738Z,0.89
2022-11-30T04:45:18.732Z,0.61
2022-11-30T04:46:18.801Z,1.06
2022-11-30T04:47:18.726Z,0.89
2022-11-30T04:48:18.732Z,1.06
2022-11-30T04:49:18.739Z,0.89
2022-11-30T04:50:18.734Z,1.17
2022-11-30T04:51:18.738Z,0.89
2022-11-30T04:52:18.740Z,1.06
2022-11-30T04:53:18.761Z,1.06
2022-11-30T04:54:18.743Z,0.83
2022-11-30T04:55:18.742Z,0.94
2022-11-30T04:56:18.733Z,0.72
2022-11-30T04:57:18.752Z,1.17
2022-11-30T04:58:18.745Z,0.94
2022-11-30T04:59:18.744Z,1.11
2022-11-30T05:00:18.745Z,0.89
2022-11-30T05:01:18.790Z,0.94
2022-11-30T05:02:18.747Z,0.94
2022-11-30T05:03:18.744Z,0.89
2022-11-30T05:04:18.819Z,1.06
2022-11-30T05:05:18.736Z,1.17
2022-11-30T05:06:18.742Z,1.06
2022-11-30T05:07:18.806Z,0.89
2022-11-30T05:08:18.744Z,0.89
2022-11-30T05:09:18.765Z,0.61
2022-11-30T05:10:18.751Z,0.89
2022-11-30T05:11:18.741Z,0.89
2022-11-30T05:12:18.747Z,1.06
2022-11-30T05:13:18.743Z,1.06
2022-11-30T05:14:18.748Z,1.06
2022-11-30T05:15:18.748Z,1.06
2022-11-30T05:16:18.876Z,0.89
2022-11-30T05:17:18.756Z,0.44
2022-11-30T05:18:18.751Z,0.89
2022-11-30T05:19:18.755Z,0.89
2022-11-30T05:20:18.757Z,0.61
2022-11-30T05:21:18.757Z,0.89
2022-11-30T05:22:18.758Z,0.89
2022-11-30T05:23:18.754Z,0.72
2022-11-30T05:24:18.746Z,0.89
2022-11-30T05:25:18.785Z,0.89
2022-11-30T05:26:18.752Z,0.61
2022-11-30T05:27:22.454Z,0.89
2022-11-30T05:28:18.752Z,0.89
2022-11-30T05:29:18.752Z,0.89
2022-11-30T05:30:18.757Z,0.89
2022-11-30T05:31:18.779Z,0.89
2022-11-30T05:32:18.753Z,0.89
2022-11-30T05:33:18.756Z,0.61
2022-11-30T05:34:18.752Z,0.61
2022-11-30T05:35:18.761Z,0.72
2022-11-30T05:36:18.756Z,0.28
2022-11-30T05:37:18.777Z,0.89
2022-11-30T05:38:18.783Z,0.44
2022-11-30T05:39:18.764Z,0.72
2022-11-30T05:40:18.765Z,0.72
2022-11-30T05:41:18.791Z,0.72
2022-11-30T05:42:18.772Z,0.89
2022-11-30T05:43:18.782Z,0.89
2022-11-30T05:44:18.770Z,0.89
2022-11-30T05:45:18.757Z,0.44
2022-11-30T05:46:18.844Z,0.61
2022-11-30T05:47:18.805Z,0.44
2022-11-30T05:48:18.773Z,0.72
2022-11-30T05:49:18.777Z,0.89
2022-11-30T05:50:18.767Z,0.89
2022-11-30T05:51:18.774Z,0.72
2022-11-30T05:52:18.781Z,0.89
2022-11-30T05:53:18.773Z,0.89
2022-11-30T05:54:18.780Z,1.06
2022-11-30T05:55:18.771Z,0.89
2022-11-30T05:56:18.775Z,0.83
2022-11-30T05:57:18.804Z,0.89
2022-11-30T05:58:18.784Z,0.89
2022-11-30T05:59:18.777Z,0.89
2022-11-30T06:00:18.780Z,0.89
2022-11-30T06:01:18.801Z,0.61
2022-11-30T06:02:21.420Z,0.89
2022-11-30T06:03:18.908Z,0.89
2022-11-30T06:04:18.779Z,1.06
2022-11-30T06:05:18.792Z,0.89
2022-11-30T06:06:18.790Z,0.89
2022-11-30T06:07:18.839Z,1.06
2022-11-30T06:08:18.789Z,0.89
2022-11-30T06:09:18.796Z,0.89
2022-11-30T06:10:18.793Z,1.06
2022-11-30T06:11:18.796Z,0.89
2022-11-30T06:12:18.795Z,0.89
2022-11-30T06:13:18.814Z,0.89
2022-11-30T06:14:18.800Z,0.89
2022-11-30T06:15:18.792Z,0.72
2022-11-30T06:16:18.833Z,0.89
2022-11-30T06:17:18.791Z,0.89
2022-11-30T06:18:18.805Z,0.89
2022-11-30T06:19:18.792Z,0.94
2022-11-30T06:20:18.807Z,0.72
2022-11-30T06:21:24.064Z,0.89
2022-11-30T06:22:18.808Z,1.06
2022-11-30T06:23:18.797Z,0.72
2022-11-30T06:24:18.805Z,0.89
2022-11-30T06:25:18.979Z,0.44
2022-11-30T06:26:18.810Z,0.72
2022-11-30T06:27:18.801Z,1.06
2022-11-30T06:28:18.806Z,0.89
2022-11-30T06:29:18.830Z,0.61
2022-11-30T06:30:18.808Z,0.89
2022-11-30T06:31:18.873Z,1.06
2022-11-30T06:32:18.810Z,0.89
2022-11-30T06:33:18.809Z,0.89
2022-11-30T06:34:18.809Z,0.72
2022-11-30T06:35:18.816Z,0.61
2022-11-30T06:36:18.810Z,0.72
2022-11-30T06:37:18.810Z,0.72
2022-11-30T06:38:18.814Z,0.89
2022-11-30T06:39:31.604Z,0.89
2022-11-30T06:40:18.808Z,0.89
2022-11-30T06:41:18.810Z,0.72
2022-11-30T06:42:18.815Z,1.17
2022-11-30T06:43:18.819Z,0.61
2022-11-30T06:44:18.813Z,1.06
2022-11-30T06:45:18.843Z,0.72
2022-11-30T06:46:18.857Z,0.89
2022-11-30T06:47:18.823Z,0.89
2022-11-30T06:48:18.818Z,1.06
2022-11-30T06:49:18.826Z,0.89
2022-11-30T06:50:18.814Z,0.89
2022-11-30T06:51:18.825Z,0.89
2022-11-30T06:52:18.828Z,0.89
2022-11-30T06:53:18.826Z,1.06
2022-11-30T06:54:18.827Z,0.89
2022-11-30T06:55:18.824Z,1.17
2022-11-30T06:56:18.825Z,0.89
2022-11-30T06:57:18.830Z,1.17
2022-11-30T06:58:18.831Z,1.06
2022-11-30T06:59:18.823Z,1.06
2022-11-30T07:00:18.824Z,1.06
2022-11-30T07:01:18.913Z,1.06
2022-11-30T07:02:19.137Z,0.89
2022-11-30T07:03:18.827Z,0.89
2022-11-30T07:04:18.860Z,1.17
2022-11-30T07:05:18.835Z,1.06
2022-11-30T07:06:18.833Z,0.89
2022-11-30T07:07:18.834Z,1.06
2022-11-30T07:08:18.840Z,0.89
2022-11-30T07:09:18.837Z,1.06
2022-11-30T07:10:20.344Z,0.89
2022-11-30T07:11:18.836Z,1.06
2022-11-30T07:12:18.834Z,0.72
2022-11-30T07:13:18.838Z,0.61
2022-11-30T07:14:18.842Z,0.89
2022-11-30T07:15:18.832Z,1.06
2022-11-30T07:16:18.875Z,1.06
2022-11-30T07:17:18.864Z,0.89
2022-11-30T07:18:18.839Z,1.33
2022-11-30T07:19:18.848Z,0.72
2022-11-30T07:20:18.854Z,1.06
2022-11-30T07:21:18.843Z,1.06
2022-11-30T07:22:18.845Z,1.06
2022-11-30T07:23:18.850Z,1.06
2022-11-30T07:24:18.847Z,1.06
2022-11-30T07:25:18.846Z,1.17
2022-11-30T07:26:18.852Z,1.17
2022-11-30T07:27:18.853Z,1.5
2022-11-30T07:28:18.848Z,1.06
2022-11-30T07:29:18.852Z,1.33
2022-11-30T07:30:18.857Z,1.06
2022-11-30T07:31:18.903Z,1.17
2022-11-30T07:32:18.860Z,1.33
2022-11-30T07:33:18.888Z,1.5
2022-11-30T07:34:18.865Z,1.5
2022-11-30T07:35:18.855Z,1.33
2022-11-30T07:36:18.869Z,1.33
2022-11-30T07:37:18.866Z,1.33
2022-11-30T07:38:18.864Z,1.06
2022-11-30T07:39:18.858Z,1.33
2022-11-30T07:40:18.860Z,1.17
2022-11-30T07:41:18.861Z,1.33
2022-11-30T07:42:18.868Z,1.33
2022-11-30T07:43:18.866Z,1.33
2022-11-30T07:44:18.871Z,1.06
2022-11-30T07:45:18.867Z,1.5
2022-11-30T07:46:18.911Z,1.17
2022-11-30T07:47:18.870Z,1.33
2022-11-30T07:48:18.874Z,1.5
2022-11-30T07:49:18.895Z,1.33
2022-11-30T07:50:18.879Z,1.5
2022-11-30T07:51:18.880Z,1.17
2022-11-30T07:52:18.887Z,1.5
2022-11-30T07:53:18.872Z,1.5
2022-11-30T07:54:18.878Z,1.61
2022-11-30T07:55:18.883Z,1.61
2022-11-30T07:56:18.879Z,1.61
2022-11-30T07:57:18.875Z,1.61
2022-11-30T07:58:18.879Z,1.61
2022-11-30T07:59:18.879Z,1.72
2022-11-30T08:00:18.887Z,1.61
2022-11-30T08:01:19.021Z,1.61
2022-11-30T08:02:18.988Z,1.89
2022-11-30T08:03:18.882Z,1.72
2022-11-30T08:04:18.900Z,1.61
2022-11-30T08:05:18.915Z,1.72
2022-11-30T08:06:18.885Z,1.72
2022-11-30T08:07:18.936Z,1.61
2022-11-30T08:08:18.900Z,1.72
2022-11-30T08:09:20.793Z,1.72
2022-11-30T08:10:18.889Z,1.72
2022-11-30T08:11:18.887Z,1.72
2022-11-30T08:12:18.892Z,1.72
2022-11-30T08:13:18.911Z,1.89
2022-11-30T08:14:18.907Z,1.89
2022-11-30T08:15:20.538Z,1.61
2022-11-30T08:16:18.975Z,1.72
2022-11-30T08:17:18.900Z,1.89
2022-11-30T08:18:18.896Z,2
2022-11-30T08:19:18.906Z,2
2022-11-30T08:20:18.898Z,2
2022-11-30T08:21:18.945Z,1.72
2022-11-30T08:22:18.902Z,1.72
2022-11-30T08:23:18.899Z,1.72
2022-11-30T08:24:18.959Z,2
2022-11-30T08:25:18.903Z,1.72
2022-11-30T08:26:18.905Z,1.72
2022-11-30T08:27:18.907Z,1.72
2022-11-30T08:28:18.901Z,1.61
2022-11-30T08:29:18.906Z,1.72
2022-11-30T08:30:18.920Z,1.72
2022-11-30T08:31:18.960Z,1.72
2022-11-30T08:32:18.915Z,1.72
2022-11-30T08:33:18.904Z,1.61
2022-11-30T08:34:18.906Z,1.72
2022-11-30T08:35:18.909Z,1.89
2022-11-30T08:36:18.911Z,1.89
2022-11-30T08:37:18.937Z,1.72
2022-11-30T08:38:18.914Z,1.72
2022-11-30T08:39:18.917Z,2
2022-11-30T08:40:18.917Z,2
2022-11-30T08:41:18.908Z,2.17
2022-11-30T08:42:18.913Z,2
2022-11-30T08:43:18.912Z,1.72
2022-11-30T08:44:18.907Z,2.17
2022-11-30T08:45:18.928Z,2.17
2022-11-30T08:46:49.501Z,2.17
2022-11-30T08:47:18.974Z,2
2022-11-30T08:48:18.922Z,2
2022-11-30T08:49:21.843Z,2
2022-11-30T08:50:18.913Z,2.17
2022-11-30T08:51:18.925Z,2.44
2022-11-30T08:52:19.199Z,2.17
2022-11-30T08:53:18.952Z,2.28
2022-11-30T08:54:18.924Z,2.17
2022-11-30T08:55:18.925Z,2.28
2022-11-30T08:56:18.928Z,1.89
2022-11-30T08:57:18.932Z,2.17
2022-11-30T08:58:18.926Z,2
2022-11-30T08:59:18.929Z,1.89
2022-11-30T09:00:18.928Z,2.44
2022-11-30T09:01:18.936Z,2.44
2022-11-30T09:02:18.975Z,2.44
2022-11-30T09:03:18.935Z,2.28
2022-11-30T09:04:18.925Z,2.61
2022-11-30T09:05:18.932Z,2.44
2022-11-30T09:06:18.938Z,2.44
2022-11-30T09:07:19.052Z,2.61
2022-11-30T09:08:18.932Z,2.61
2022-11-30T09:09:18.953Z,2.89
2022-11-30T09:10:18.939Z,2.72
2022-11-30T09:11:18.951Z,2.17
2022-11-30T09:12:18.931Z,2.44
2022-11-30T09:13:18.940Z,2.61
2022-11-30T09:14:18.962Z,2.61
2022-11-30T09:15:18.931Z,2.72
2022-11-30T09:16:19.016Z,2.28
2022-11-30T09:17:18.936Z,2.61
2022-11-30T09:18:18.937Z,2.28
2022-11-30T09:19:18.936Z,2.61
2022-11-30T09:20:18.936Z,2.72
2022-11-30T09:21:18.925Z,2.61
2022-11-30T09:22:18.946Z,2.72
2022-11-30T09:23:18.943Z,2.72
2022-11-30T09:24:18.935Z,2.61
2022-11-30T09:25:18.962Z,2.28
2022-11-30T09:26:18.945Z,2.89
2022-11-30T09:27:18.936Z,2.72
2022-11-30T09:28:18.940Z,3
2022-11-30T09:29:18.940Z,2.89
2022-11-30T09:30:19.026Z,2.72
2022-11-30T09:31:18.950Z,2.72
2022-11-30T09:32:18.936Z,2.89
2022-11-30T09:33:18.936Z,2.72
2022-11-30T09:34:18.960Z,3
2022-11-30T09:35:18.936Z,2.72
2022-11-30T09:36:18.942Z,2.72
2022-11-30T09:37:18.962Z,3
2022-11-30T09:38:18.940Z,3
2022-11-30T09:39:18.955Z,3
2022-11-30T09:40:18.943Z,2.89
2022-11-30T09:41:18.968Z,3
2022-11-30T09:42:18.946Z,3
2022-11-30T09:43:18.940Z,3
2022-11-30T09:44:18.947Z,3
2022-11-30T09:45:18.939Z,3.17
2022-11-30T09:46:18.999Z,2.72
2022-11-30T09:47:18.949Z,2.89
2022-11-30T09:48:18.947Z,2.89
2022-11-30T09:49:18.954Z,2.72
2022-11-30T09:50:19.015Z,3
2022-11-30T09:51:18.950Z,2.61
2022-11-30T09:52:18.962Z,2.44
2022-11-30T09:53:19.783Z,2.89
2022-11-30T09:54:18.957Z,2.72
2022-11-30T09:55:18.949Z,2.44
2022-11-30T09:56:18.960Z,2.89
2022-11-30T09:57:19.000Z,2.89
2022-11-30T09:58:18.955Z,3.17
2022-11-30T09:59:18.953Z,2.89
2022-11-30T10:00:19.003Z,2.89
2022-11-30T10:01:19.110Z,2.72
2022-11-30T10:02:19.093Z,3
2022-11-30T10:03:19.012Z,3
2022-11-30T10:04:18.957Z,2.89
2022-11-30T10:05:18.986Z,2.72
2022-11-30T10:06:18.981Z,2.72
2022-11-30T10:07:18.982Z,3.33
2022-11-30T10:08:18.963Z,3
2022-11-30T10:09:18.959Z,3.33
2022-11-30T10:10:34.406Z,3.33
2022-11-30T10:11:18.964Z,3.44
2022-11-30T10:12:18.964Z,3.33
2022-11-30T10:13:19.002Z,3.44
2022-11-30T10:14:18.972Z,3.33
2022-11-30T10:15:18.988Z,3.17
2022-11-30T10:16:19.006Z,3.33
2022-11-30T10:17:18.964Z,3
2022-11-30T10:18:18.965Z,2.94
2022-11-30T10:19:18.968Z,3
2022-11-30T10:20:18.978Z,3.56
2022-11-30T10:21:18.980Z,3.33
2022-11-30T10:22:18.971Z,3.44
2022-11-30T10:23:18.976Z,3.44
2022-11-30T10:24:19.222Z,3.56
2022-11-30T10:25:18.976Z,3.44
2022-11-30T10:26:18.985Z,3.44
2022-11-30T10:27:18.976Z,3.44
2022-11-30T10:28:45.337Z,3.33
2022-11-30T10:29:19.017Z,3.44
2022-11-30T10:30:18.990Z,3.61
2022-11-30T10:31:19.016Z,3.72
2022-11-30T10:32:18.977Z,3.72
2022-11-30T10:33:18.987Z,3.56
2022-11-30T10:34:18.973Z,3.83
2022-11-30T10:35:18.988Z,3.56
2022-11-30T10:36:18.976Z,3.72
2022-11-30T10:37:18.989Z,3.56
2022-11-30T10:38:18.976Z,3.56
2022-11-30T10:39:18.984Z,3.72
2022-11-30T10:40:18.988Z,3.56
2022-11-30T10:41:18.984Z,4
2022-11-30T10:42:18.987Z,3.83
2022-11-30T10:43:18.977Z,3.83
2022-11-30T10:44:18.984Z,3.5
2022-11-30T10:45:19.013Z,3.5
2022-11-30T10:46:19.032Z,3.33
2022-11-30T10:47:18.980Z,3.44
2022-11-30T10:48:18.991Z,3.72
2022-11-30T10:49:18.986Z,3.39
2022-11-30T10:50:18.991Z,3.67
2022-11-30T10:51:18.994Z,3.61
2022-11-30T10:52:18.986Z,3.78
2022-11-30T10:53:18.989Z,3.28
2022-11-30T10:54:19.001Z,3.28
2022-11-30T10:55:18.996Z,3.67
2022-11-30T10:56:18.987Z,3.67
2022-11-30T10:57:18.995Z,3.67
2022-11-30T10:58:19.008Z,3.56
2022-11-30T10:59:18.993Z,3.78
2022-11-30T11:00:18.993Z,4.11
2022-11-30T11:01:19.089Z,4.39
2022-11-30T11:02:19.012Z,4.39
2022-11-30T11:03:19.001Z,3.94
2022-11-30T11:04:19.052Z,3.94
2022-11-30T11:05:18.991Z,3.78
2022-11-30T11:06:18.996Z,3.94
2022-11-30T11:07:19.112Z,4.11
2022-11-30T11:08:19.031Z,4.11
2022-11-30T11:09:19.008Z,4.22
2022-11-30T11:10:19.265Z,4.5
2022-11-30T11:11:18.996Z,4.83
2022-11-30T11:12:19.004Z,4.22
2022-11-30T11:13:18.998Z,3.94
2022-11-30T11:14:19.009Z,4.11
2022-11-30T11:15:19.000Z,4.22
2022-11-30T11:16:19.048Z,4.11
2022-11-30T11:17:19.127Z,3.94
2022-11-30T11:18:19.008Z,3.94
2022-11-30T11:19:18.996Z,3.94
2022-11-30T11:20:19.001Z,4.94
2022-11-30T11:21:19.012Z,4.83
2022-11-30T11:22:19.006Z,4.94
2022-11-30T11:23:19.014Z,4.67
2022-11-30T11:24:19.011Z,4.67
2022-11-30T11:25:19.022Z,4.67
2022-11-30T11:26:19.008Z,4.67
2022-11-30T11:27:19.012Z,4.67
2022-11-30T11:28:19.010Z,5.11
2022-11-30T11:29:19.031Z,4.94
2022-11-30T11:30:19.007Z,5.22
2022-11-30T11:31:19.181Z,4.83
2022-11-30T11:32:19.023Z,4.22
2022-11-30T11:33:19.040Z,4.39
2022-11-30T11:34:19.043Z,4.5
2022-11-30T11:35:19.015Z,4.22
2022-11-30T11:36:19.019Z,4.5
2022-11-30T11:37:19.021Z,4.39
2022-11-30T11:38:19.017Z,4.22
2022-11-30T11:39:19.020Z,4.39
2022-11-30T11:40:19.022Z,4.5
2022-11-30T11:41:19.025Z,4.5
2022-11-30T11:42:22.032Z,4.5
2022-11-30T11:43:19.022Z,4.5
2022-11-30T11:44:19.020Z,4.67
2022-11-30T11:45:19.021Z,4.94
2022-11-30T11:46:19.027Z,4.67
2022-11-30T11:47:19.013Z,4.67
2022-11-30T11:48:19.034Z,4.5
2022-11-30T11:49:19.058Z,4.22
2022-11-30T11:50:27.258Z,3.94
2022-11-30T11:51:19.034Z,4.39
2022-11-30T11:52:19.032Z,4.94
2022-11-30T11:53:19.101Z,4.67
2022-11-30T11:54:19.071Z,4.67
2022-11-30T11:55:19.037Z,4.83
2022-11-30T11:56:19.022Z,4.67
2022-11-30T11:57:19.036Z,4.94
2022-11-30T11:58:19.028Z,4.67
2022-11-30T11:59:19.044Z,4.67
2022-11-30T12:00:19.034Z,4.83
2022-11-30T12:01:39.053Z,4.94
2022-11-30T12:02:19.051Z,4.67
2022-11-30T12:03:19.031Z,4.5
2022-11-30T12:04:19.071Z,4.83
2022-11-30T12:05:19.059Z,4.83
2022-11-30T12:06:19.037Z,4.67
2022-11-30T12:07:19.032Z,4.11
2022-11-30T12:08:19.030Z,4.5
2022-11-30T12:09:19.036Z,4.83
2022-11-30T12:10:49.767Z,4.67
2022-11-30T12:11:19.034Z,4.67
2022-11-30T12:12:19.036Z,4.67
2022-11-30T12:13:19.043Z,5.39
2022-11-30T12:14:19.041Z,5.22
2022-11-30T12:15:19.038Z,5.11
2022-11-30T12:16:19.115Z,5.22
2022-11-30T12:17:19.046Z,5.56
2022-11-30T12:18:23.691Z,5.39
2022-11-30T12:19:19.037Z,5.11
2022-11-30T12:20:19.040Z,5.39
2022-11-30T12:21:19.057Z,5.56
2022-11-30T12:22:19.034Z,6.22
2022-11-30T12:23:19.038Z,6.06
2022-11-30T12:24:19.039Z,5.78
2022-11-30T12:25:19.039Z,5.22
2022-11-30T12:26:19.043Z,5.22
2022-11-30T12:27:19.048Z,5.39
2022-11-30T12:28:19.035Z,5.78
2022-11-30T12:29:19.033Z,5.78
2022-11-30T12:30:19.026Z,6.06
2022-11-30T12:31:19.060Z,6.5
2022-11-30T12:32:19.038Z,6.5
2022-11-30T12:33:19.049Z,7.11
2022-11-30T12:34:19.039Z,6.78
2022-11-30T12:35:19.042Z,6.94
2022-11-30T12:36:19.036Z,6.67
2022-11-30T12:37:19.060Z,6.22
2022-11-30T12:38:19.043Z,6.67
2022-11-30T12:39:19.047Z,6.67
2022-11-30T12:40:19.042Z,5.94
2022-11-30T12:41:19.041Z,6.22
2022-11-30T12:42:19.040Z,5.94
2022-11-30T12:43:19.044Z,6.22
2022-11-30T12:44:19.032Z,5.39
2022-11-30T12:45:19.043Z,5.56
2022-11-30T12:46:19.103Z,4.94
2022-11-30T12:47:19.037Z,4.67
2022-11-30T12:48:19.034Z,4.83
2022-11-30T12:49:19.124Z,4.5
2022-11-30T12:50:19.041Z,4.94
2022-11-30T12:51:19.045Z,5.11
2022-11-30T12:52:19.049Z,4.94
2022-11-30T12:53:19.074Z,4.94
2022-11-30T12:54:19.046Z,4.83
2022-11-30T12:55:19.051Z,4.83
2022-11-30T12:56:19.047Z,4.83
2022-11-30T12:57:19.041Z,4.5
2022-11-30T12:58:19.047Z,4.94
2022-11-30T12:59:19.049Z,4.67
2022-11-30T13:00:19.044Z,4.5
2022-11-30T13:01:19.085Z,4.67
2022-11-30T13:02:19.084Z,4.83
2022-11-30T13:03:19.065Z,4.5
2022-11-30T13:04:19.050Z,4.83
2022-11-30T13:05:19.054Z,4.94
2022-11-30T13:06:19.059Z,5.39
2022-11-30T13:07:19.120Z,5.39
2022-11-30T13:08:19.047Z,5.67
2022-11-30T13:09:19.081Z,5.78
2022-11-30T13:10:19.053Z,5.67
2022-11-30T13:11:19.047Z,5.78
2022-11-30T13:12:19.047Z,5.56
2022-11-30T13:13:19.053Z,5.11
2022-11-30T13:14:19.041Z,5.67
2022-11-30T13:15:19.049Z,5.78
2022-11-30T13:16:19.097Z,5.78
2022-11-30T13:17:19.059Z,5.39
2022-11-30T13:18:19.056Z,4.5
2022-11-30T13:19:19.047Z,4.83
2022-11-30T13:20:19.051Z,4.83
2022-11-30T13:21:19.056Z,4.94
2022-11-30T13:22:19.055Z,5.11
2022-11-30T13:23:19.053Z,4.94